| time (UTC) | temp C | wind direction | speed KPH | gust KPH | rain 1hr cm | rain 24hr cm | rain mn cm | humidity % | barometer mb |
| 20260502152011 | 18 | 248 | 1.6 | 9.7 | 0.00 | 3.35 | 0.03 | 70 | 1021.2 |
| 20260502151510 | 18 | 91 | 3.2 | 11.3 | 0.00 | 3.35 | 0.03 | 71 | 1021.2 |
| 20260502130511 | 12 | 277 | 1.6 | 9.7 | 0.00 | 4.14 | 0.00 | 90 | 1020.1 |
| 20260502123510 | 11 | 271 | 0.0 | 3.2 | 0.00 | 4.60 | 0.00 | 92 | 1019.7 |
| 20260502123031 | 11 | 271 | 0.0 | 4.8 | 0.00 | 4.62 | 0.00 | 92 | 1019.6 |
| 20260502122510 | 11 | 271 | 0.0 | 6.4 | 0.00 | 4.70 | 0.00 | 92 | 1019.5 |
| 20260502122010 | 11 | 271 | 0.0 | 6.4 | 0.00 | 4.75 | 0.00 | 92 | 1019.4 |
| 20260502121519 | 11 | 270 | 1.6 | 6.4 | 0.00 | 4.78 | 0.00 | 92 | 1019.3 |
| 20260502121008 | 11 | 270 | 1.6 | 4.8 | 0.00 | 4.80 | 0.00 | 92 | 1019.4 |
| 20260502120511 | 11 | 271 | 0.0 | 4.8 | 0.00 | 4.83 | 0.00 | 92 | 1019.4 |
| 20260502115504 | 11 | 270 | 0.0 | 6.4 | 0.00 | 4.83 | 0.00 | 91 | 1019.3 |
| 20260502115003 | 11 | 270 | 0.0 | 6.4 | 0.00 | 4.88 | 0.00 | 92 | 1019.1 |
| 20260502114508 | 11 | 270 | 0.0 | 3.2 | 0.00 | 4.95 | 0.00 | 91 | 1018.9 |
| 20260502114006 | 11 | 270 | 0.0 | 3.2 | 0.00 | 5.03 | 0.00 | 91 | 1018.8 |
| 20260502113506 | 11 | 271 | 0.0 | 3.2 | 0.00 | 5.11 | 0.00 | 91 | 1018.8 |
| 20260502113014 | 11 | 271 | 0.0 | 3.2 | 0.00 | 5.11 | 0.00 | 91 | 1018.8 |
| 20260502112506 | 11 | 271 | 0.0 | 3.2 | 0.00 | 5.11 | 0.00 | 91 | 1018.7 |
| 20260502112005 | 11 | 270 | 0.0 | 4.8 | 0.00 | 5.13 | 0.00 | 91 | 1018.7 |
| 20260502111521 | 11 | 270 | 0.0 | 4.8 | 0.00 | 5.16 | 0.00 | 91 | 1018.6 |
| 20260502111010 | 11 | 270 | 0.0 | 3.2 | 0.00 | 5.16 | 0.00 | 91 | 1018.6 |
| 20260502110503 | 11 | 271 | 0.0 | 6.4 | 0.00 | 5.18 | 0.00 | 91 | 1018.6 |
| 20260502110008 | 11 | 270 | 0.0 | 6.4 | 0.00 | 5.21 | 0.00 | 91 | 1018.6 |
| 20260502105504 | 11 | 271 | 0.0 | 6.4 | 0.00 | 5.33 | 0.00 | 91 | 1018.5 |
| 20260502105003 | 11 | 270 | 3.2 | 6.4 | 0.00 | 5.61 | 0.00 | 90 | 1018.5 |
| 20260502104515 | 11 | 271 | 0.0 | 4.8 | 0.00 | 5.66 | 0.00 | 90 | 1018.5 |
| 20260502104006 | 11 | 271 | 1.6 | 4.8 | 0.00 | 5.71 | 0.00 | 90 | 1018.4 |
| 20260502103506 | 11 | 271 | 0.0 | 6.4 | 0.00 | 5.71 | 0.00 | 89 | 1018.5 |
| 20260502103019 | 11 | 271 | 1.6 | 6.4 | 0.00 | 5.74 | 0.00 | 89 | 1018.4 |
| 20260502102010 | 11 | 271 | 0.0 | 3.2 | 0.00 | 5.77 | 0.00 | 89 | 1018.3 |
| 20260502101520 | 11 | 271 | 0.0 | 1.6 | 0.00 | 5.82 | 0.00 | 89 | 1018.1 |
| 20260502101013 | 11 | 271 | 0.0 | 9.7 | 0.00 | 5.84 | 0.00 | 89 | 1018.0 |
| 20260502100502 | 11 | 271 | 0.0 | 9.7 | 0.00 | 5.92 | 0.00 | 89 | 1017.8 |
| 20260502091524 | 12 | 284 | 0.0 | 4.8 | 0.00 | 7.52 | 0.00 | 88 | 1016.9 |
| 20260502091010 | 12 | 286 | 0.0 | 4.8 | 0.00 | 7.80 | 0.00 | 87 | 1016.9 |
| 20260502090502 | 12 | 283 | 0.0 | 3.2 | 0.00 | 8.36 | 0.00 | 87 | 1016.9 |
| 20260502071525 | 12 | 99 | 1.6 | 8.0 | 0.00 | 10.41 | 0.00 | 89 | 1016.3 |
| 20260502071004 | 12 | 126 | 1.6 | 8.0 | 0.00 | 10.41 | 0.00 | 89 | 1016.5 |
| 20260502065507 | 12 | 135 | 0.0 | 4.8 | 0.00 | 10.41 | 0.00 | 90 | 1016.9 |
| 20260502065013 | 12 | 250 | 0.0 | 8.0 | 0.00 | 10.41 | 0.00 | 90 | 1016.9 |
| 20260502064519 | 12 | 190 | 0.0 | 8.0 | 0.00 | 10.41 | 0.00 | 90 | 1016.6 |
| 20260502064011 | 12 | 105 | 1.6 | 6.4 | 0.00 | 10.41 | 0.00 | 90 | 1016.5 |
| 20260502063507 | 12 | 74 | 1.6 | 6.4 | 0.00 | 10.41 | 0.00 | 90 | 1016.4 |
| 20260502063023 | 12 | 96 | 1.6 | 6.4 | 0.00 | 10.41 | 0.00 | 90 | 1016.3 |
| 20260502062516 | 12 | 253 | 0.0 | 6.4 | 0.00 | 10.41 | 0.00 | 90 | 1016.4 |
| 20260502062011 | 12 | 142 | 0.0 | 8.0 | 0.00 | 10.41 | 0.00 | 90 | 1016.3 |
| 20260502061526 | 12 | 245 | 0.0 | 8.0 | 0.00 | 10.41 | 0.00 | 90 | 1016.2 |
| 20260502061004 | 12 | 279 | 1.6 | 12.9 | 0.00 | 10.41 | 0.00 | 90 | 1016.3 |
| 20260502060507 | 12 | 86 | 1.6 | 12.9 | 0.00 | 10.41 | 0.00 | 90 | 1016.2 |
| 20260502060018 | 12 | 174 | 1.6 | 11.3 | 0.00 | 10.41 | 0.00 | 90 | 1016.3 |
| 20260502055505 | 12 | 86 | 3.2 | 9.7 | 0.00 | 10.41 | 0.00 | 90 | 1016.2 |
| 20260502055010 | 12 | 285 | 1.6 | 17.7 | 0.00 | 10.41 | 0.00 | 90 | 1016.3 |
| 20260502054519 | 12 | 136 | 1.6 | 17.7 | 0.00 | 10.44 | 0.00 | 90 | 1016.3 |
| 20260502054010 | 12 | 172 | 1.6 | 9.7 | 0.00 | 10.46 | 0.00 | 90 | 1016.2 |
| 20260502053508 | 13 | 158 | 3.2 | 9.7 | 0.00 | 10.64 | 0.00 | 90 | 1016.2 |
| 20260502053026 | 13 | 281 | 0.0 | 11.3 | 0.00 | 10.74 | 0.00 | 90 | 1016.2 |
| 20260502052510 | 13 | 213 | 3.2 | 12.9 | 0.00 | 10.74 | 0.00 | 90 | 1016.1 |
| 20260502052012 | 13 | 132 | 1.6 | 12.9 | 0.00 | 10.74 | 0.00 | 90 | 1016.2 |
| 20260502051530 | 13 | 283 | 1.6 | 11.3 | 0.00 | 10.74 | 0.00 | 90 | 1016.1 |
| 20260502051003 | 13 | 157 | 0.0 | 16.1 | 0.00 | 10.74 | 0.00 | 91 | 1016.1 |
| 20260502050505 | 13 | 254 | 1.6 | 16.1 | 0.00 | 10.74 | 0.00 | 91 | 1016.1 |
| 20260502050016 | 13 | 116 | 0.0 | 12.9 | 0.00 | 10.74 | 0.00 | 91 | 1016.0 |
| 20260502045509 | 13 | 248 | 1.6 | 12.9 | 0.00 | 10.92 | 10.74 | 91 | 1016.0 |
| 20260502045013 | 13 | 105 | 4.8 | 16.1 | 0.00 | 11.33 | 10.74 | 91 | 1016.0 |
| 20260502044521 | 13 | 130 | 3.2 | 16.1 | 0.00 | 11.51 | 10.74 | 91 | 1016.0 |
| 20260502044011 | 13 | 77 | 3.2 | 11.3 | 0.00 | 12.01 | 10.74 | 91 | 1015.9 |
| 20260502043511 | 13 | 97 | 3.2 | 12.9 | 0.00 | 12.14 | 10.74 | 91 | 1016.1 |
| 20260502043025 | 13 | 248 | 3.2 | 12.9 | 0.00 | 12.14 | 10.74 | 91 | 1016.2 |
| 20260502042510 | 13 | 159 | 3.2 | 9.7 | 0.00 | 12.14 | 10.74 | 92 | 1016.2 |
| 20260502042011 | 13 | 150 | 1.6 | 9.7 | 0.00 | 12.14 | 10.74 | 92 | 1016.1 |
| 20260502041529 | 13 | 109 | 1.6 | 12.9 | 0.00 | 12.14 | 10.74 | 92 | 1016.0 |
| 20260502041009 | 13 | 132 | 3.2 | 12.9 | 0.00 | 12.14 | 10.74 | 92 | 1015.9 |
| 20260502040507 | 13 | 108 | 1.6 | 9.7 | 0.00 | 12.14 | 10.74 | 92 | 1016.0 |
| 20260502040017 | 13 | 279 | 1.6 | 9.7 | 0.00 | 12.14 | 10.74 | 92 | 1016.1 |
| 20260502035507 | 13 | 277 | 1.6 | 12.9 | 0.00 | 12.14 | 10.74 | 92 | 1016.2 |
| 20260502035011 | 13 | 274 | 3.2 | 12.9 | 0.00 | 12.14 | 10.74 | 92 | 1016.3 |
| 20260502034522 | 13 | 147 | 4.8 | 19.3 | 0.00 | 12.14 | 10.74 | 92 | 1016.3 |
| 20260502034007 | 13 | 258 | 4.8 | 19.3 | 0.00 | 12.14 | 10.74 | 92 | 1016.3 |
| 20260502033511 | 13 | 207 | 4.8 | 16.1 | 0.00 | 12.14 | 10.74 | 92 | 1016.2 |
| 20260502033025 | 13 | 133 | 1.6 | 16.1 | 0.00 | 12.14 | 10.74 | 92 | 1016.0 |
| 20260502032513 | 13 | 344 | 1.6 | 16.1 | 0.00 | 12.14 | 10.74 | 92 | 1015.9 |
| 20260502032012 | 13 | 282 | 4.8 | 16.1 | 0.00 | 12.14 | 10.74 | 92 | 1015.8 |
| 20260502031514 | 13 | 156 | 1.6 | 12.9 | 0.00 | 12.14 | 10.74 | 92 | 1015.7 |
| 20260502031008 | 13 | 115 | 0.0 | 12.9 | 0.00 | 12.14 | 10.74 | 92 | 1015.7 |
| 20260502030508 | 13 | 149 | 3.2 | 12.9 | 0.00 | 12.14 | 10.74 | 92 | 1015.5 |
| 20260502030026 | 13 | 201 | 3.2 | 12.9 | 0.03 | 12.14 | 10.74 | 91 | 1015.3 |
| 20260502025508 | 13 | 284 | 1.6 | 11.3 | 0.05 | 12.14 | 10.74 | 92 | 1015.3 |
| 20260502025010 | 13 | 55 | 1.6 | 14.5 | 0.05 | 12.14 | 10.74 | 92 | 1015.2 |
| 20260502024523 | 13 | 111 | 4.8 | 14.5 | 0.08 | 12.14 | 10.74 | 92 | 1015.1 |
| 20260502024011 | 13 | 352 | 1.6 | 12.9 | 0.10 | 12.14 | 10.74 | 92 | 1014.9 |
| 20260502023513 | 13 | 70 | 3.2 | 9.7 | 0.10 | 12.14 | 10.74 | 92 | 1014.6 |
| 20260502023004 | 13 | 144 | 3.2 | 11.3 | 0.13 | 12.14 | 10.74 | 92 | 1014.4 |
| 20260502022504 | 13 | 120 | 1.6 | 11.3 | 0.13 | 12.14 | 10.74 | 92 | 1014.3 |
| 20260502022006 | 13 | 281 | 3.2 | 12.9 | 0.15 | 12.14 | 10.74 | 92 | 1014.4 |
| 20260502021504 | 13 | 143 | 0.0 | 12.9 | 0.18 | 12.14 | 10.74 | 92 | 1014.4 |
| 20260502021004 | 13 | 249 | 1.6 | 17.7 | 0.23 | 12.14 | 10.74 | 92 | 1014.5 |
| 20260502020504 | 13 | 277 | 4.8 | 17.7 | 0.28 | 12.14 | 10.74 | 92 | 1014.3 |
| 20260502020004 | 13 | 217 | 3.2 | 12.9 | 0.28 | 12.12 | 10.74 | 92 | 1014.0 |
| 20260502014505 | 13 | 69 | 1.6 | 17.7 | 0.28 | 12.06 | 10.69 | 92 | 1014.2 |
| 20260502014002 | 13 | 321 | 3.2 | 17.7 | 0.25 | 12.01 | 10.64 | 92 | 1014.0 |
| 20260502013005 | 13 | 253 | 3.2 | 16.1 | 0.25 | 12.01 | 10.64 | 92 | 1014.2 |
| 20260502012503 | 14 | 249 | 1.6 | 17.7 | 0.25 | 12.01 | 10.64 | 93 | 1013.8 |
| 20260502012004 | 14 | 214 | 4.8 | 17.7 | 0.25 | 11.96 | 10.59 | 92 | 1013.5 |
| 20260502011504 | 14 | 279 | 3.2 | 12.9 | 0.23 | 11.96 | 10.59 | 93 | 1013.4 |
| 20260502011004 | 14 | 284 | 0.0 | 12.9 | 0.20 | 11.91 | 10.54 | 93 | 1013.5 |
| 20260502010507 | 15 | 101 | 1.6 | 17.7 | 0.15 | 11.86 | 10.49 | 93 | 1013.6 |
| 20260502010004 | 15 | 277 | 3.2 | 17.7 | 0.15 | 11.84 | 10.46 | 93 | 1013.8 |
| 20260502005504 | 15 | 246 | 1.6 | 11.3 | 0.15 | 11.81 | 10.44 | 93 | 1013.9 |
| 20260502005003 | 15 | 272 | 0.0 | 11.3 | 0.18 | 11.79 | 10.41 | 93 | 1014.4 |
| 20260502004507 | 15 | 273 | 3.2 | 9.7 | 0.23 | 11.79 | 10.41 | 93 | 1014.0 |
| 20260502004003 | 15 | 272 | 1.6 | 19.3 | 0.30 | 11.79 | 10.41 | 93 | 1013.0 |
| 20260502003003 | 15 | 267 | 3.2 | 19.3 | 0.41 | 11.76 | 10.39 | 93 | 1012.3 |
| 20260502002503 | 15 | 158 | 3.2 | 11.3 | 0.43 | 11.76 | 10.39 | 93 | 1012.4 |
| 20260502002003 | 15 | 273 | 1.6 | 11.3 | 0.41 | 11.73 | 10.36 | 93 | 1012.4 |
| 20260502001506 | 15 | 285 | 0.0 | 11.3 | 0.41 | 11.73 | 10.36 | 93 | 1012.9 |
| 20260502001003 | 15 | 202 | 1.6 | 17.7 | 0.38 | 11.71 | 10.34 | 93 | 1013.3 |
| 20260502000503 | 15 | 168 | 0.0 | 17.7 | 0.41 | 11.71 | 10.34 | 93 | 1013.3 |
| 20260502000008 | 15 | 317 | 3.2 | 17.7 | 0.43 | 11.68 | 10.31 | 93 | 1013.0 |
| 20260501235503 | 15 | 290 | 0.0 | 12.9 | 0.61 | 11.66 | 10.29 | 93 | 1013.0 |
| 20260501235003 | 15 | 181 | 1.6 | 12.9 | 0.64 | 11.61 | 10.24 | 93 | 1013.4 |
| 20260501234507 | 15 | 245 | 0.0 | 14.5 | 0.58 | 11.56 | 10.19 | 93 | 1013.3 |
| 20260501234004 | 15 | 284 | 0.0 | 14.5 | 0.53 | 11.48 | 10.11 | 93 | 1012.8 |
| 20260501233504 | 15 | 279 | 1.6 | 12.9 | 0.46 | 11.38 | 10.03 | 93 | 1012.4 |
| 20260501231004 | 15 | 85 | 3.2 | 12.9 | 0.38 | 11.33 | 9.96 | 93 | 1010.9 |
| 20260501230503 | 15 | 95 | 6.4 | 12.9 | 0.36 | 11.28 | 9.93 | 93 | 1011.2 |
| 20260501230008 | 15 | 76 | 6.4 | 12.9 | 0.30 | 11.23 | 9.88 | 93 | 1011.3 |
| 20260501225503 | 15 | 97 | 3.2 | 14.5 | 0.10 | 11.05 | 9.68 | 93 | 1012.1 |
| 20260501225010 | 15 | 287 | 0.0 | 14.5 | 0.03 | 10.97 | 9.60 | 93 | 1012.7 |
| 20260501224507 | 15 | 145 | 1.6 | 12.9 | 0.03 | 10.97 | 9.60 | 93 | 1012.0 |
| 20260501224003 | 15 | 88 | 4.8 | 12.9 | 0.00 | 10.95 | 9.58 | 93 | 1010.9 |
| 20260501223503 | 15 | 78 | 6.4 | 17.7 | 0.03 | 10.95 | 9.58 | 93 | 1010.3 |
| 20260501223006 | 16 | 134 | 3.2 | 17.7 | 0.05 | 10.95 | 9.58 | 93 | 1010.8 |
| 20260501222504 | 16 | 83 | 4.8 | 12.9 | 0.08 | 10.95 | 9.58 | 93 | 1010.4 |
| 20260501222003 | 16 | 94 | 4.8 | 14.5 | 0.10 | 10.95 | 9.58 | 93 | 1010.2 |
| 20260501221515 | 16 | 78 | 6.4 | 14.5 | 0.10 | 10.95 | 9.58 | 93 | 1010.2 |
| 20260501221014 | 16 | 88 | 3.2 | 12.9 | 0.13 | 10.95 | 9.58 | 93 | 1010.5 |
| 20260501220503 | 16 | 65 | 3.2 | 12.9 | 0.13 | 10.95 | 9.58 | 93 | 1010.7 |
| 20260501220008 | 16 | 163 | 3.2 | 12.9 | 0.13 | 10.95 | 9.58 | 93 | 1010.9 |
| 20260501215504 | 16 | 134 | 3.2 | 12.9 | 0.13 | 10.95 | 9.58 | 93 | 1011.1 |
| 20260501215005 | 16 | 163 | 3.2 | 9.7 | 0.15 | 10.95 | 9.58 | 93 | 1011.5 |
| 20260501214508 | 16 | 286 | 0.0 | 9.7 | 0.15 | 10.95 | 9.58 | 93 | 1011.6 |
| 20260501214003 | 16 | 278 | 0.0 | 9.7 | 0.18 | 10.95 | 9.58 | 94 | 1011.8 |
| 20260501213507 | 16 | 256 | 1.6 | 16.1 | 0.18 | 10.92 | 9.55 | 93 | 1011.6 |
| 20260501213010 | 16 | 109 | 1.6 | 16.1 | 0.18 | 10.90 | 9.53 | 93 | 1011.8 |
| 20260501212504 | 16 | 278 | 1.6 | 8.0 | 0.18 | 10.87 | 9.50 | 94 | 1012.2 |
| 20260501212007 | 16 | 253 | 0.0 | 8.0 | 0.15 | 10.85 | 9.47 | 93 | 1011.3 |
| 20260501211510 | 16 | 173 | 1.6 | 6.4 | 0.18 | 10.85 | 9.47 | 94 | 1011.3 |
| 20260501211006 | 16 | 287 | 0.0 | 11.3 | 0.18 | 10.82 | 9.45 | 94 | 1011.5 |
| 20260501210504 | 16 | 266 | 0.0 | 11.3 | 0.18 | 10.82 | 9.45 | 94 | 1011.2 |
| 20260501210009 | 16 | 352 | 0.0 | 11.3 | 0.20 | 10.82 | 9.45 | 94 | 1010.6 |
| 20260501205007 | 16 | 130 | 1.6 | 8.0 | 0.33 | 10.79 | 9.42 | 94 | 1010.4 |
| 20260501204510 | 16 | 105 | 0.0 | 9.7 | 0.38 | 10.79 | 9.42 | 94 | 1010.6 |
| 20260501204008 | 16 | 160 | 1.6 | 9.7 | 0.38 | 10.74 | 9.40 | 94 | 1010.3 |
| 20260501203506 | 16 | 252 | 0.0 | 9.7 | 0.36 | 10.74 | 9.37 | 94 | 1010.6 |
| 20260501203008 | 16 | 281 | 0.0 | 9.7 | 0.33 | 10.69 | 9.35 | 94 | 1011.3 |
| 20260501202504 | 16 | 281 | 1.6 | 11.3 | 0.30 | 10.69 | 9.32 | 94 | 1010.9 |
| 20260501202010 | 16 | 246 | 3.2 | 11.3 | 0.30 | 10.69 | 9.32 | 94 | 1009.8 |
| 20260501201512 | 16 | 49 | 4.8 | 11.3 | 0.28 | 10.64 | 9.30 | 94 | 1009.7 |
| 20260501201003 | 16 | 277 | 0.0 | 14.5 | 0.25 | 10.64 | 9.27 | 94 | 1009.9 |
| 20260501200508 | 16 | 105 | 4.8 | 14.5 | 0.30 | 10.64 | 9.27 | 94 | 1009.9 |
| 20260501200015 | 16 | 110 | 3.2 | 12.9 | 0.28 | 10.59 | 9.25 | 94 | 1009.3 |
| 20260501195505 | 16 | 315 | 3.2 | 12.9 | 0.23 | 10.54 | 9.17 | 94 | 1010.5 |
| 20260501195007 | 16 | 171 | 1.6 | 12.9 | 0.15 | 10.46 | 9.09 | 94 | 1010.8 |
| 20260501194511 | 17 | 249 | 1.6 | 9.7 | 0.13 | 10.41 | 9.04 | 94 | 1010.6 |
| 20260501193504 | 17 | 104 | 1.6 | 6.4 | 0.18 | 10.39 | 9.02 | 94 | 1009.7 |
| 20260501193031 | 17 | 106 | 0.0 | 4.8 | 0.23 | 10.39 | 9.02 | 94 | 1009.9 |
| 20260501192511 | 17 | 157 | 0.0 | 4.8 | 0.28 | 10.39 | 9.02 | 95 | 1010.1 |
| 20260501192005 | 17 | 124 | 0.0 | 4.8 | 0.33 | 10.39 | 9.02 | 95 | 1010.1 |
| 20260501191510 | 16 | 94 | 0.0 | 4.8 | 0.41 | 10.39 | 9.02 | 94 | 1010.0 |
| 20260501191004 | 16 | 124 | 1.6 | 4.8 | 0.43 | 10.39 | 9.02 | 94 | 1009.6 |
| 20260501190509 | 16 | 93 | 1.6 | 6.4 | 0.38 | 10.34 | 8.97 | 95 | 1010.1 |
| 20260501190019 | 16 | 94 | 3.2 | 6.4 | 0.41 | 10.34 | 8.97 | 95 | 1010.4 |
| 20260501185504 | 16 | 91 | 0.0 | 6.4 | 0.41 | 10.31 | 8.94 | 94 | 1010.7 |
| 20260501185004 | 16 | 92 | 1.6 | 6.4 | 0.43 | 10.31 | 8.94 | 94 | 1010.0 |
| 20260501184515 | 16 | 78 | 3.2 | 6.4 | 0.43 | 10.29 | 8.92 | 94 | 1010.1 |
| 20260501184005 | 16 | 74 | 3.2 | 6.4 | 0.43 | 10.26 | 8.89 | 94 | 1009.9 |
| 20260501182505 | 16 | 132 | 0.0 | 14.5 | 0.30 | 10.11 | 8.74 | 94 | 1010.1 |
| 20260501182007 | 16 | 76 | 0.0 | 14.5 | 0.28 | 10.06 | 8.69 | 94 | 1010.1 |
| 20260501181512 | 16 | 102 | 8.0 | 14.5 | 0.23 | 9.98 | 8.61 | 94 | 1008.7 |
| 20260501181006 | 16 | 51 | 4.8 | 14.5 | 0.20 | 9.96 | 8.59 | 94 | 1008.7 |
| 20260501180508 | 16 | 101 | 6.4 | 16.1 | 0.20 | 9.96 | 8.59 | 94 | 1008.6 |
| 20260501180016 | 16 | 107 | 8.0 | 16.1 | 0.18 | 9.93 | 8.56 | 94 | 1008.6 |
| 20260501175508 | 16 | 95 | 8.0 | 14.5 | 0.18 | 9.91 | 8.53 | 94 | 1008.8 |
| 20260501175005 | 16 | 62 | 4.8 | 11.3 | 0.15 | 9.88 | 8.51 | 94 | 1009.0 |
| 20260501174513 | 16 | 35 | 3.2 | 14.5 | 0.15 | 9.86 | 8.48 | 94 | 1010.1 |
| 20260501174006 | 16 | 99 | 3.2 | 14.5 | 0.15 | 9.83 | 8.46 | 94 | 1010.4 |
| 20260501173507 | 16 | 283 | 3.2 | 12.9 | 0.18 | 9.83 | 8.46 | 94 | 1010.7 |
| 20260501172506 | 16 | 245 | 3.2 | 12.9 | 0.23 | 9.80 | 8.43 | 94 | 1011.0 |
| 20260501171512 | 16 | 254 | 1.6 | 9.7 | 0.33 | 9.75 | 8.38 | 94 | 1011.4 |
| 20260501171010 | 16 | 192 | 3.2 | 9.7 | 0.41 | 9.75 | 8.38 | 94 | 1011.2 |
| 20260501170507 | 16 | 135 | 3.2 | 9.7 | 0.51 | 9.75 | 8.38 | 94 | 1011.0 |
| 20260501170017 | 16 | 104 | 1.6 | 6.4 | 0.64 | 9.75 | 8.38 | 94 | 1011.3 |
| 20260501165506 | 16 | 121 | 0.0 | 9.7 | 0.69 | 9.73 | 8.36 | 94 | 1011.5 |
| 20260501165009 | 16 | 105 | 0.0 | 9.7 | 0.76 | 9.73 | 8.36 | 94 | 1011.6 |
| 20260501164515 | 16 | 198 | 1.6 | 9.7 | 0.79 | 9.70 | 8.33 | 94 | 1011.7 |
| 20260501164007 | 16 | 136 | 3.2 | 12.9 | 0.81 | 9.68 | 8.31 | 94 | 1011.4 |
| 20260501163507 | 16 | 279 | 1.6 | 12.9 | 0.81 | 9.65 | 8.28 | 94 | 1011.9 |
| 20260501163017 | 16 | 157 | 1.6 | 12.9 | 0.76 | 9.60 | 8.23 | 94 | 1012.2 |
| 20260501162507 | 16 | 281 | 1.6 | 12.9 | 0.76 | 9.58 | 8.20 | 94 | 1012.9 |
| 20260501162007 | 16 | 193 | 1.6 | 12.9 | 0.69 | 9.50 | 8.13 | 94 | 1013.5 |
| 20260501160020 | 16 | 163 | 1.6 | 17.7 | 0.33 | 9.12 | 7.75 | 94 | 1013.5 |
| 20260501155509 | 16 | 259 | 1.6 | 17.7 | 0.25 | 9.04 | 7.67 | 94 | 1013.6 |